createdAt,value
2023-01-07T00:03:43.078Z,7.0
2023-01-07T00:08:49.281Z,6.6
2023-01-07T00:13:55.664Z,6.9
2023-01-07T00:19:02.172Z,8.0
2023-01-07T00:23:58.518Z,6.1
2023-01-07T00:29:04.789Z,6.1
2023-01-07T00:34:21.339Z,4.2
2023-01-07T00:39:16.576Z,6.0
2023-01-07T00:44:23.959Z,6.6
2023-01-07T00:49:40.495Z,6.0
2023-01-07T00:54:45.764Z,6.2
2023-01-07T00:59:54.701Z,4.9
2023-01-07T01:05:01.185Z,5.5
2023-01-07T01:10:27.526Z,5.2
2023-01-07T01:15:13.999Z,5.3
2023-01-07T01:20:10.608Z,4.1
2023-01-07T01:26:10.997Z,4.1
2023-01-07T01:30:33.302Z,6.1
2023-01-07T01:35:39.829Z,5.7
2023-01-07T01:40:46.058Z,4.1
2023-01-07T01:46:52.606Z,4.8
2023-01-07T01:50:58.940Z,5.1
2023-01-07T01:56:05.199Z,4.2
2023-01-07T02:01:11.819Z,4.4
2023-01-07T02:06:18.371Z,6.5
2023-01-07T02:11:28.784Z,4.6
2023-01-07T02:16:55.263Z,5.5
2023-01-07T02:21:37.721Z,1.2
2023-01-07T02:26:33.964Z,4.5
2023-01-07T02:31:50.437Z,4.3
2023-01-07T02:36:56.871Z,4.0
2023-01-07T02:42:03.260Z,5.6
2023-01-07T02:47:09.645Z,4.6
2023-01-07T02:52:16.176Z,3.3
2023-01-07T02:57:21.431Z,2.4
2023-01-07T03:02:28.820Z,2.2
2023-01-07T03:07:35.302Z,3.9
2023-01-07T03:12:41.578Z,3.0
2023-01-07T03:17:47.998Z,3.7
2023-01-07T03:22:54.482Z,4.3
2023-01-07T03:28:00.716Z,3.9
2023-01-07T03:33:07.112Z,3.6
2023-01-07T03:38:13.629Z,2.5
2023-01-07T03:43:19.888Z,3.4
2023-01-07T03:48:26.264Z,3.0
2023-01-07T03:53:52.836Z,3.5
2023-01-07T03:58:29.042Z,3.2
2023-01-07T04:03:45.451Z,3.3
2023-01-07T04:09:12.072Z,2.4
2023-01-07T04:13:58.268Z,1.8
2023-01-07T04:20:16.921Z,2.5
2023-01-07T04:24:01.143Z,3.5
2023-01-07T04:29:20.697Z,2.6
2023-01-07T04:34:23.945Z,2.7
2023-01-07T04:39:20.324Z,3.0
2023-01-07T04:44:36.927Z,3.0
2023-01-07T04:49:43.305Z,3.4
2023-01-07T04:54:49.682Z,2.4
2023-01-07T04:59:46.299Z,3.8
2023-01-07T05:05:26.664Z,2.5
2023-01-07T05:10:09.007Z,2.8
2023-01-07T05:15:15.503Z,3.6
2023-01-07T05:20:21.802Z,2.8
2023-01-07T05:25:28.192Z,3.8
2023-01-07T05:30:34.769Z,3.9
2023-01-07T05:35:40.963Z,3.4
2023-01-07T05:40:49.519Z,4.2
2023-01-07T05:46:14.182Z,2.9
2023-01-07T05:50:50.406Z,3.3
2023-01-07T05:55:56.799Z,2.1
2023-01-07T06:01:13.286Z,2.8
2023-01-07T06:06:19.775Z,1.4
2023-01-07T06:11:26.033Z,2.0
2023-01-07T06:16:32.440Z,3.1
2023-01-07T06:21:58.998Z,0.9
2023-01-07T06:26:45.186Z,2.1
2023-01-07T06:31:51.609Z,2.3
2023-01-07T06:36:48.080Z,2.4
2023-01-07T06:42:04.706Z,2.3
2023-01-07T06:47:00.990Z,2.5
2023-01-07T06:52:17.398Z,2.1
2023-01-07T06:57:23.931Z,3.3
2023-01-07T07:02:30.391Z,1.5
2023-01-07T07:07:36.861Z,1.1
2023-01-07T07:12:43.656Z,1.9
2023-01-07T07:18:12.677Z,1.5
2023-01-07T07:23:00.011Z,2.4
2023-01-07T07:28:02.419Z,1.8
2023-01-07T07:32:58.840Z,2.8
2023-01-07T07:38:39.295Z,2.0
2023-01-07T07:43:21.728Z,2.0
2023-01-07T07:48:27.980Z,2.3
2023-01-07T07:53:54.558Z,2.2
2023-01-07T07:58:41.054Z,2.1
2023-01-07T08:04:07.297Z,2.2
2023-01-07T08:08:53.648Z,1.8
2023-01-07T08:13:50.261Z,1.8
2023-01-07T08:20:07.352Z,2.3
2023-01-07T08:24:13.682Z,0.7
2023-01-07T08:29:20.159Z,1.4
2023-01-07T08:34:26.433Z,1.7
2023-01-07T08:39:53.095Z,1.5
2023-01-07T08:44:53.580Z,1.8
2023-01-07T08:49:34.788Z,1.2
2023-01-07T08:54:52.220Z,2.1
2023-01-07T08:59:48.558Z,2.1
2023-01-07T09:05:05.100Z,1.8
2023-01-07T09:10:11.407Z,2.0
2023-01-07T09:15:17.805Z,1.7
2023-01-07T09:20:24.354Z,1.4
2023-01-07T09:25:30.660Z,1.9
2023-01-07T09:30:37.037Z,1.8
2023-01-07T09:35:43.548Z,1.8
2023-01-07T09:40:39.853Z,2.6
2023-01-07T09:45:56.408Z,1.6
2023-01-07T09:51:02.859Z,1.8
2023-01-07T09:56:12.019Z,2.1
2023-01-07T10:01:14.550Z,1.9
2023-01-07T10:06:12.061Z,1.8
2023-01-07T10:11:28.327Z,1.2
2023-01-07T10:16:34.812Z,1.7
2023-01-07T10:21:41.221Z,1.9
2023-01-07T10:26:47.473Z,2.0
2023-01-07T10:31:53.875Z,1.1
2023-01-07T10:37:24.613Z,1.7
2023-01-07T10:42:06.842Z,3.0
2023-01-07T10:47:13.270Z,1.1
2023-01-07T10:52:19.647Z,1.1
2023-01-07T10:57:26.229Z,1.2
2023-01-07T11:02:32.695Z,1.3
2023-01-07T11:07:38.870Z,1.5
2023-01-07T11:12:45.397Z,1.6
2023-01-07T11:18:15.684Z,1.7
2023-01-07T11:22:58.041Z,0.8
2023-01-07T11:28:04.566Z,1.1
2023-01-07T11:33:10.855Z,1.2
2023-01-07T11:38:17.240Z,0.9
2023-01-07T11:43:23.757Z,1.2
2023-01-07T11:48:54.657Z,1.2
2023-01-07T11:53:37.004Z,0.8
2023-01-07T11:58:43.555Z,1.0
2023-01-07T12:04:13.899Z,1.1
2023-01-07T12:08:56.236Z,1.0
2023-01-07T12:14:02.762Z,0.8
2023-01-07T12:19:32.144Z,0.4
2023-01-07T12:24:15.602Z,1.1
2023-01-07T12:29:22.213Z,1.1
2023-01-07T12:34:28.454Z,0.9
2023-01-07T12:39:24.816Z,0.7
2023-01-07T12:44:31.348Z,1.8
2023-01-07T12:49:37.583Z,1.0
2023-01-07T12:54:53.996Z,0.7
2023-01-07T13:00:00.544Z,1.5
2023-01-07T13:05:06.871Z,1.4
2023-01-07T13:10:03.216Z,1.6
2023-01-07T13:15:18.759Z,1.1
2023-01-07T13:20:26.025Z,1.4
2023-01-07T13:25:32.398Z,1.6
2023-01-07T13:31:03.140Z,3.2
2023-01-07T13:35:45.377Z,1.7
2023-01-07T13:40:41.753Z,0.7
2023-01-07T13:46:22.427Z,1.2
2023-01-07T13:51:03.615Z,1.7
2023-01-07T13:56:45.104Z,1.3
2023-01-07T14:01:52.773Z,1.4
2023-01-07T14:06:58.864Z,1.4
2023-01-07T14:12:05.242Z,1.7
2023-01-07T14:17:15.340Z,1.5
2023-01-07T14:22:21.581Z,1.6
2023-01-07T14:27:27.964Z,1.8
2023-01-07T14:32:34.478Z,1.0
2023-01-07T14:37:40.744Z,1.3
2023-01-07T14:43:11.235Z,1.7
2023-01-07T14:48:28.780Z,1.2
2023-01-07T14:56:24.239Z,1.3
2023-01-07T14:58:42.408Z,2.1
2023-01-07T15:03:48.904Z,1.8
2023-01-07T15:09:15.179Z,0.9
2023-01-07T15:14:01.525Z,1.2
2023-01-07T15:19:28.051Z,1.0
2023-01-07T15:24:38.419Z,1.3
2023-01-07T15:29:10.872Z,1.6
2023-01-07T15:34:47.442Z,1.6
2023-01-07T15:39:33.680Z,2.2
2023-01-07T15:45:00.163Z,1.4
2023-01-07T15:49:46.458Z,1.5
2023-01-07T15:54:42.969Z,1.2
2023-01-07T16:00:00.227Z,2.0
2023-01-07T16:05:26.719Z,1.5
2023-01-07T16:10:13.209Z,1.8
2023-01-07T16:15:43.696Z,1.6
2023-01-07T16:20:27.558Z,1.9
2023-01-07T16:26:56.566Z,1.2
2023-01-07T16:30:58.882Z,2.0
2023-01-07T16:35:45.106Z,2.0
2023-01-07T16:40:51.493Z,1.4
2023-01-07T16:46:42.113Z,1.7
2023-01-07T16:51:48.321Z,1.8
2023-01-07T16:56:10.649Z,1.9
2023-01-07T17:01:37.173Z,1.0
2023-01-07T17:07:47.667Z,1.8
2023-01-07T17:11:29.778Z,1.2
2023-01-07T17:18:08.325Z,1.9
2023-01-07T17:22:06.604Z,1.3
2023-01-07T17:26:49.074Z,1.4
2023-01-07T17:31:55.444Z,1.7
2023-01-07T17:37:21.758Z,1.9
2023-01-07T17:42:08.234Z,1.6
2023-01-07T17:47:34.535Z,2.8
2023-01-07T17:52:20.858Z,1.6
2023-01-07T17:57:17.353Z,1.6
2023-01-07T18:02:53.950Z,2.0
2023-01-07T18:07:40.263Z,1.9
2023-01-07T18:12:46.783Z,1.7
2023-01-07T18:17:53.046Z,1.2
2023-01-07T18:23:23.477Z,2.5
2023-01-07T18:28:05.939Z,1.8
2023-01-07T18:33:33.729Z,0.9
2023-01-07T18:38:42.656Z,2.0
2023-01-07T18:43:25.153Z,2.8
2023-01-07T18:48:31.350Z,2.6
2023-01-07T18:53:37.871Z,2.8
2023-01-07T18:58:48.394Z,1.3
2023-01-07T19:03:50.685Z,2.5
2023-01-07T19:09:17.071Z,2.1
2023-01-07T19:14:03.567Z,2.2
2023-01-07T19:19:09.826Z,2.8
2023-01-07T19:24:06.187Z,2.6
2023-01-07T19:29:22.787Z,2.7
2023-01-07T19:34:29.057Z,2.6
2023-01-07T19:39:36.020Z,2.2
2023-01-07T19:44:42.545Z,2.2
2023-01-07T19:49:48.795Z,2.1
2023-01-07T19:54:55.167Z,1.9
2023-01-07T20:00:01.675Z,2.2
2023-01-07T20:10:37.567Z,2.1
2023-01-07T20:16:33.461Z,2.0
2023-01-07T20:20:17.556Z,2.1
2023-01-07T20:25:54.404Z,2.3
2023-01-07T20:30:30.725Z,1.2
2023-01-07T20:36:07.379Z,2.9
2023-01-07T20:40:52.607Z,1.6
2023-01-07T20:46:00.248Z,1.2
2023-01-07T20:50:56.693Z,1.5
2023-01-07T20:56:13.392Z,1.1
2023-01-07T21:01:18.827Z,1.7
2023-01-07T21:06:26.068Z,1.6
2023-01-07T21:11:32.572Z,2.3
2023-01-07T21:16:37.907Z,2.7
2023-01-07T21:21:45.295Z,1.9
2023-01-07T21:26:51.827Z,2.2
2023-01-07T21:31:58.170Z,1.7
2023-01-07T21:37:04.533Z,1.9
2023-01-07T21:42:11.024Z,0.7
2023-01-07T21:47:17.342Z,2.2
2023-01-07T21:52:23.795Z,2.0
2023-01-07T21:57:30.237Z,2.5
2023-01-07T22:02:36.513Z,1.2
2023-01-07T22:08:03.006Z,0.9
2023-01-07T22:12:49.569Z,1.6
2023-01-07T22:17:55.824Z,2.0
2023-01-07T22:23:02.200Z,1.6
2023-01-07T22:28:08.694Z,1.7
2023-01-07T22:33:15.085Z,2.5
2023-01-07T22:38:21.499Z,2.1
2023-01-07T22:43:28.007Z,2.1
2023-01-07T22:48:33.276Z,2.9
2023-01-07T22:53:40.709Z,2.3
2023-01-07T22:58:47.181Z,2.0
2023-01-07T23:03:53.501Z,1.5
2023-01-07T23:08:49.952Z,2.2
2023-01-07T23:14:06.501Z,1.9
2023-01-07T23:19:02.828Z,2.2
2023-01-07T23:24:19.273Z,1.8
2023-01-07T23:29:25.772Z,2.0
2023-01-07T23:34:32.068Z,1.6
2023-01-07T23:39:38.466Z,1.5
2023-01-07T23:44:45.038Z,2.2
2023-01-07T23:49:51.352Z,1.9
2023-01-07T23:54:57.832Z,2.1
